sensor_id;sensor_type;location;lat;lon;timestamp;temperature;humidity
22416;DHT22;12204;50.600;4.608;2023-10-13T00:00:33;23.50;81.40
22416;DHT22;12204;50.600;4.608;2023-10-13T00:05:39;23.50;81.70
22416;DHT22;12204;50.600;4.608;2023-10-13T00:10:44;23.50;81.70
22416;DHT22;12204;50.600;4.608;2023-10-13T00:15:49;23.50;81.50
22416;DHT22;12204;50.600;4.608;2023-10-13T00:20:59;23.50;81.90
22416;DHT22;12204;50.600;4.608;2023-10-13T00:26:06;23.50;81.80
22416;DHT22;12204;50.600;4.608;2023-10-13T00:31:11;23.50;82.90
22416;DHT22;12204;50.600;4.608;2023-10-13T00:36:17;23.50;82.10
22416;DHT22;12204;50.600;4.608;2023-10-13T00:41:23;23.50;82.80
22416;DHT22;12204;50.600;4.608;2023-10-13T00:46:47;23.50;82.70
22416;DHT22;12204;50.600;4.608;2023-10-13T00:51:56;23.50;82.70
22416;DHT22;12204;50.600;4.608;2023-10-13T00:57:01;23.50;82.80
22416;DHT22;12204;50.600;4.608;2023-10-13T01:02:14;23.60;82.70
22416;DHT22;12204;50.600;4.608;2023-10-13T01:07:34;23.60;82.60
22416;DHT22;12204;50.600;4.608;2023-10-13T01:12:40;23.50;82.40
22416;DHT22;12204;50.600;4.608;2023-10-13T01:17:46;23.50;82.30
22416;DHT22;12204;50.600;4.608;2023-10-13T01:22:49;23.50;82.30
22416;DHT22;12204;50.600;4.608;2023-10-13T01:27:58;23.50;82.10
22416;DHT22;12204;50.600;4.608;2023-10-13T01:33:02;23.60;82.20
22416;DHT22;12204;50.600;4.608;2023-10-13T01:38:06;23.60;82.10
22416;DHT22;12204;50.600;4.608;2023-10-13T01:43:11;23.60;82.10
22416;DHT22;12204;50.600;4.608;2023-10-13T01:48:16;23.60;82.00
22416;DHT22;12204;50.600;4.608;2023-10-13T01:53:23;23.60;82.40
22416;DHT22;12204;50.600;4.608;2023-10-13T01:58:31;23.60;82.30
22416;DHT22;12204;50.600;4.608;2023-10-13T02:03:36;23.60;82.60
22416;DHT22;12204;50.600;4.608;2023-10-13T02:08:48;23.60;82.60
22416;DHT22;12204;50.600;4.608;2023-10-13T02:14:00;23.50;82.50
22416;DHT22;12204;50.600;4.608;2023-10-13T02:19:03;23.60;82.40
22416;DHT22;12204;50.600;4.608;2023-10-13T02:24:07;23.60;82.40
22416;DHT22;12204;50.600;4.608;2023-10-13T02:29:17;23.50;82.30
22416;DHT22;12204;50.600;4.608;2023-10-13T02:34:20;23.50;82.40
22416;DHT22;12204;50.600;4.608;2023-10-13T02:39:25;23.50;82.40
22416;DHT22;12204;50.600;4.608;2023-10-13T02:44:30;23.50;82.40
22416;DHT22;12204;50.600;4.608;2023-10-13T02:49:35;23.60;82.50
22416;DHT22;12204;50.600;4.608;2023-10-13T02:54:40;23.60;82.50
22416;DHT22;12204;50.600;4.608;2023-10-13T02:59:50;23.50;82.60
22416;DHT22;12204;50.600;4.608;2023-10-13T03:04:59;23.60;81.80
22416;DHT22;12204;50.600;4.608;2023-10-13T03:10:11;23.50;82.70
22416;DHT22;12204;50.600;4.608;2023-10-13T03:15:18;23.50;82.20
22416;DHT22;12204;50.600;4.608;2023-10-13T03:20:23;23.50;82.60
22416;DHT22;12204;50.600;4.608;2023-10-13T03:25:33;23.50;82.60
22416;DHT22;12204;50.600;4.608;2023-10-13T03:30:46;23.50;82.50
22416;DHT22;12204;50.600;4.608;2023-10-13T03:35:54;23.50;82.60
22416;DHT22;12204;50.600;4.608;2023-10-13T03:41:07;23.60;82.50
22416;DHT22;12204;50.600;4.608;2023-10-13T03:46:21;23.60;82.50
22416;DHT22;12204;50.600;4.608;2023-10-13T03:51:25;23.60;81.70
22416;DHT22;12204;50.600;4.608;2023-10-13T03:56:33;23.60;82.20
22416;DHT22;12204;50.600;4.608;2023-10-13T04:01:44;23.60;82.40
22416;DHT22;12204;50.600;4.608;2023-10-13T04:06:49;23.60;82.10
22416;DHT22;12204;50.600;4.608;2023-10-13T04:12:14;23.50;81.80
22416;DHT22;12204;50.600;4.608;2023-10-13T04:17:44;23.50;82.00
22416;DHT22;12204;50.600;4.608;2023-10-13T04:22:48;23.60;82.40
22416;DHT22;12204;50.600;4.608;2023-10-13T04:28:20;23.50;82.60
22416;DHT22;12204;50.600;4.608;2023-10-13T04:39:35;23.60;82.30
22416;DHT22;12204;50.600;4.608;2023-10-13T04:44:50;23.60;82.00
22416;DHT22;12204;50.600;4.608;2023-10-13T04:50:05;23.50;82.20
22416;DHT22;12204;50.600;4.608;2023-10-13T04:55:26;23.50;82.20
22416;DHT22;12204;50.600;4.608;2023-10-13T05:00:50;23.50;82.00
22416;DHT22;12204;50.600;4.608;2023-10-13T05:06:15;23.50;82.20
22416;DHT22;12204;50.600;4.608;2023-10-13T05:11:32;23.50;82.40
22416;DHT22;12204;50.600;4.608;2023-10-13T05:16:53;23.50;82.50
22416;DHT22;12204;50.600;4.608;2023-10-13T05:22:15;23.50;82.40
22416;DHT22;12204;50.600;4.608;2023-10-13T05:27:36;23.50;82.80
22416;DHT22;12204;50.600;4.608;2023-10-13T05:32:58;23.50;82.70
22416;DHT22;12204;50.600;4.608;2023-10-13T05:38:20;23.50;82.70
22416;DHT22;12204;50.600;4.608;2023-10-13T05:43:41;23.50;82.80
22416;DHT22;12204;50.600;4.608;2023-10-13T05:49:03;23.50;82.90
22416;DHT22;12204;50.600;4.608;2023-10-13T05:54:30;23.50;83.20
22416;DHT22;12204;50.600;4.608;2023-10-13T05:59:51;23.50;83.00
22416;DHT22;12204;50.600;4.608;2023-10-13T06:05:13;23.50;83.10
22416;DHT22;12204;50.600;4.608;2023-10-13T06:10:36;23.50;83.30
22416;DHT22;12204;50.600;4.608;2023-10-13T06:15:57;23.50;83.40
22416;DHT22;12204;50.600;4.608;2023-10-13T06:21:20;23.50;83.60
22416;DHT22;12204;50.600;4.608;2023-10-13T06:26:43;23.50;83.50
22416;DHT22;12204;50.600;4.608;2023-10-13T06:32:04;23.50;83.60
22416;DHT22;12204;50.600;4.608;2023-10-13T06:37:15;23.50;83.50
22416;DHT22;12204;50.600;4.608;2023-10-13T06:42:28;23.50;83.50
22416;DHT22;12204;50.600;4.608;2023-10-13T06:47:33;23.50;83.60
22416;DHT22;12204;50.600;4.608;2023-10-13T06:52:41;23.50;83.50
22416;DHT22;12204;50.600;4.608;2023-10-13T06:57:46;23.50;83.40
22416;DHT22;12204;50.600;4.608;2023-10-13T07:02:52;23.50;83.50
22416;DHT22;12204;50.600;4.608;2023-10-13T07:08:07;23.50;84.20
22416;DHT22;12204;50.600;4.608;2023-10-13T07:13:17;23.50;83.50
22416;DHT22;12204;50.600;4.608;2023-10-13T07:18:21;23.50;82.40
22416;DHT22;12204;50.600;4.608;2023-10-13T07:23:25;23.50;81.80
22416;DHT22;12204;50.600;4.608;2023-10-13T07:28:30;23.40;81.30
22416;DHT22;12204;50.600;4.608;2023-10-13T07:33:37;23.40;81.10
22416;DHT22;12204;50.600;4.608;2023-10-13T07:38:43;23.40;80.70
22416;DHT22;12204;50.600;4.608;2023-10-13T07:44:05;23.40;80.60
22416;DHT22;12204;50.600;4.608;2023-10-13T07:49:08;23.40;80.60
22416;DHT22;12204;50.600;4.608;2023-10-13T07:54:13;23.40;80.20
22416;DHT22;12204;50.600;4.608;2023-10-13T07:59:25;23.40;80.00
22416;DHT22;12204;50.600;4.608;2023-10-13T08:04:29;23.40;80.00
22416;DHT22;12204;50.600;4.608;2023-10-13T08:09:37;23.40;80.20
22416;DHT22;12204;50.600;4.608;2023-10-13T08:14:43;23.40;80.10
22416;DHT22;12204;50.600;4.608;2023-10-13T08:19:47;23.40;79.30
22416;DHT22;12204;50.600;4.608;2023-10-13T08:24:52;23.30;79.10
22416;DHT22;12204;50.600;4.608;2023-10-13T08:30:18;23.40;79.00
22416;DHT22;12204;50.600;4.608;2023-10-13T08:35:39;23.30;79.10
22416;DHT22;12204;50.600;4.608;2023-10-13T08:40:58;23.40;79.00
22416;DHT22;12204;50.600;4.608;2023-10-13T08:46:22;23.30;78.70
22416;DHT22;12204;50.600;4.608;2023-10-13T08:51:34;23.30;78.70
22416;DHT22;12204;50.600;4.608;2023-10-13T08:56:50;23.40;78.80
22416;DHT22;12204;50.600;4.608;2023-10-13T09:01:59;23.40;78.20
22416;DHT22;12204;50.600;4.608;2023-10-13T09:07:17;23.50;76.40
22416;DHT22;12204;50.600;4.608;2023-10-13T09:12:28;23.70;75.70
22416;DHT22;12204;50.600;4.608;2023-10-13T09:17:42;23.50;74.90
22416;DHT22;12204;50.600;4.608;2023-10-13T09:22:54;23.50;74.70
22416;DHT22;12204;50.600;4.608;2023-10-13T09:28:11;23.50;74.60
22416;DHT22;12204;50.600;4.608;2023-10-13T09:33:23;23.40;74.60
22416;DHT22;12204;50.600;4.608;2023-10-13T09:38:36;23.40;84.40
22416;DHT22;12204;50.600;4.608;2023-10-13T09:43:42;23.30;75.10
22416;DHT22;12204;50.600;4.608;2023-10-13T09:48:47;23.30;74.90
22416;DHT22;12204;50.600;4.608;2023-10-13T09:54:09;23.30;74.70
22416;DHT22;12204;50.600;4.608;2023-10-13T09:59:38;23.20;73.90
22416;DHT22;12204;50.600;4.608;2023-10-13T10:04:56;23.20;74.40
22416;DHT22;12204;50.600;4.608;2023-10-13T10:10:22;23.20;74.10
22416;DHT22;12204;50.600;4.608;2023-10-13T10:15:29;23.30;73.90
22416;DHT22;12204;50.600;4.608;2023-10-13T10:20:39;23.20;74.00
22416;DHT22;12204;50.600;4.608;2023-10-13T10:25:44;23.30;74.70
22416;DHT22;12204;50.600;4.608;2023-10-13T10:30:48;23.30;74.50
22416;DHT22;12204;50.600;4.608;2023-10-13T10:36:00;23.30;75.00
22416;DHT22;12204;50.600;4.608;2023-10-13T10:41:05;23.30;74.40
22416;DHT22;12204;50.600;4.608;2023-10-13T10:46:09;23.30;74.30
22416;DHT22;12204;50.600;4.608;2023-10-13T10:51:18;23.30;74.40
22416;DHT22;12204;50.600;4.608;2023-10-13T10:56:26;23.40;74.00
22416;DHT22;12204;50.600;4.608;2023-10-13T11:01:43;23.40;73.60
22416;DHT22;12204;50.600;4.608;2023-10-13T11:06:52;23.40;73.40
22416;DHT22;12204;50.600;4.608;2023-10-13T11:12:07;23.40;73.20
22416;DHT22;12204;50.600;4.608;2023-10-13T11:17:21;23.40;72.90
22416;DHT22;12204;50.600;4.608;2023-10-13T11:22:36;23.40;72.80
22416;DHT22;12204;50.600;4.608;2023-10-13T11:27:44;23.30;72.50
22416;DHT22;12204;50.600;4.608;2023-10-13T11:32:59;23.30;72.50
22416;DHT22;12204;50.600;4.608;2023-10-13T11:38:09;23.30;72.00
22416;DHT22;12204;50.600;4.608;2023-10-13T11:43:15;23.30;72.50
22416;DHT22;12204;50.600;4.608;2023-10-13T11:48:19;23.30;72.30
22416;DHT22;12204;50.600;4.608;2023-10-13T11:53:38;23.40;73.40
22416;DHT22;12204;50.600;4.608;2023-10-13T11:58:41;23.30;72.80
22416;DHT22;12204;50.600;4.608;2023-10-13T12:03:46;23.30;73.00
22416;DHT22;12204;50.600;4.608;2023-10-13T12:09:10;23.30;72.60
22416;DHT22;12204;50.600;4.608;2023-10-13T12:14:21;23.40;72.90
22416;DHT22;12204;50.600;4.608;2023-10-13T12:19:31;23.30;72.30
22416;DHT22;12204;50.600;4.608;2023-10-13T12:24:38;23.30;72.20
22416;DHT22;12204;50.600;4.608;2023-10-13T12:29:45;23.30;72.80
22416;DHT22;12204;50.600;4.608;2023-10-13T12:34:49;23.40;73.00
22416;DHT22;12204;50.600;4.608;2023-10-13T12:40:20;23.40;73.00
22416;DHT22;12204;50.600;4.608;2023-10-13T12:45:41;23.40;72.70
22416;DHT22;12204;50.600;4.608;2023-10-13T12:51:03;23.40;73.10
22416;DHT22;12204;50.600;4.608;2023-10-13T12:56:23;23.40;73.00
22416;DHT22;12204;50.600;4.608;2023-10-13T13:01:28;23.40;72.60
22416;DHT22;12204;50.600;4.608;2023-10-13T13:06:36;23.40;72.70
22416;DHT22;12204;50.600;4.608;2023-10-13T13:11:43;23.40;72.90
22416;DHT22;12204;50.600;4.608;2023-10-13T13:16:50;23.40;72.20
22416;DHT22;12204;50.600;4.608;2023-10-13T13:21:54;23.40;72.10
22416;DHT22;12204;50.600;4.608;2023-10-13T13:26:59;23.40;72.10
22416;DHT22;12204;50.600;4.608;2023-10-13T13:32:04;23.40;72.10
22416;DHT22;12204;50.600;4.608;2023-10-13T13:37:18;23.40;72.10
22416;DHT22;12204;50.600;4.608;2023-10-13T13:42:23;23.40;72.30
22416;DHT22;12204;50.600;4.608;2023-10-13T13:47:28;23.40;72.40
22416;DHT22;12204;50.600;4.608;2023-10-13T13:52:31;23.40;72.50
22416;DHT22;12204;50.600;4.608;2023-10-13T13:57:49;23.40;72.50
22416;DHT22;12204;50.600;4.608;2023-10-13T14:02:53;23.40;72.40
22416;DHT22;12204;50.600;4.608;2023-10-13T14:07:57;23.40;72.40
22416;DHT22;12204;50.600;4.608;2023-10-13T14:13:03;23.40;72.40
22416;DHT22;12204;50.600;4.608;2023-10-13T14:18:15;23.50;72.50
22416;DHT22;12204;50.600;4.608;2023-10-13T14:23:19;23.50;72.20
22416;DHT22;12204;50.600;4.608;2023-10-13T14:28:25;23.40;72.50
22416;DHT22;12204;50.600;4.608;2023-10-13T14:33:36;23.50;72.60
22416;DHT22;12204;50.600;4.608;2023-10-13T14:38:41;23.50;72.60
22416;DHT22;12204;50.600;4.608;2023-10-13T14:46:53;23.40;72.10
22416;DHT22;12204;50.600;4.608;2023-10-13T14:51:57;23.50;73.10
22416;DHT22;12204;50.600;4.608;2023-10-13T14:57:02;23.50;73.00
22416;DHT22;12204;50.600;4.608;2023-10-13T15:02:07;23.50;73.00
22416;DHT22;12204;50.600;4.608;2023-10-13T15:07:10;23.50;73.20
22416;DHT22;12204;50.600;4.608;2023-10-13T15:12:14;23.50;73.30
22416;DHT22;12204;50.600;4.608;2023-10-13T15:17:25;23.50;73.20
22416;DHT22;12204;50.600;4.608;2023-10-13T15:22:30;23.50;73.20
22416;DHT22;12204;50.600;4.608;2023-10-13T15:27:36;23.50;74.40
22416;DHT22;12204;50.600;4.608;2023-10-13T15:32:45;23.50;75.50
22416;DHT22;12204;50.600;4.608;2023-10-13T15:37:50;23.50;74.90
22416;DHT22;12204;50.600;4.608;2023-10-13T15:42:54;23.60;75.40
22416;DHT22;12204;50.600;4.608;2023-10-13T15:48:03;23.60;75.80
22416;DHT22;12204;50.600;4.608;2023-10-13T15:53:11;23.70;76.60
22416;DHT22;12204;50.600;4.608;2023-10-13T15:58:15;23.70;76.20
22416;DHT22;12204;50.600;4.608;2023-10-13T16:03:20;23.70;76.10
22416;DHT22;12204;50.600;4.608;2023-10-13T16:08:25;23.70;76.80
22416;DHT22;12204;50.600;4.608;2023-10-13T16:13:28;23.70;76.40
22416;DHT22;12204;50.600;4.608;2023-10-13T16:18:34;23.70;75.90
22416;DHT22;12204;50.600;4.608;2023-10-13T16:23:38;23.60;75.60
22416;DHT22;12204;50.600;4.608;2023-10-13T16:28:42;23.60;75.30
22416;DHT22;12204;50.600;4.608;2023-10-13T16:33:46;23.60;75.10
22416;DHT22;12204;50.600;4.608;2023-10-13T16:38:51;23.60;75.40
22416;DHT22;12204;50.600;4.608;2023-10-13T16:43:59;23.60;75.90
22416;DHT22;12204;50.600;4.608;2023-10-13T16:49:10;23.60;75.80
22416;DHT22;12204;50.600;4.608;2023-10-13T16:54:14;23.60;75.90
22416;DHT22;12204;50.600;4.608;2023-10-13T16:59:17;23.60;75.90
22416;DHT22;12204;50.600;4.608;2023-10-13T17:04:22;23.60;76.70
22416;DHT22;12204;50.600;4.608;2023-10-13T17:09:29;23.60;75.70
22416;DHT22;12204;50.600;4.608;2023-10-13T17:14:35;23.50;75.70
22416;DHT22;12204;50.600;4.608;2023-10-13T17:19:43;23.50;75.60
22416;DHT22;12204;50.600;4.608;2023-10-13T17:24:51;23.50;75.60
22416;DHT22;12204;50.600;4.608;2023-10-13T17:29:56;23.50;75.50
22416;DHT22;12204;50.600;4.608;2023-10-13T17:35:00;23.50;75.40
22416;DHT22;12204;50.600;4.608;2023-10-13T17:40:05;23.50;75.70
22416;DHT22;12204;50.600;4.608;2023-10-13T17:45:11;23.50;75.80
22416;DHT22;12204;50.600;4.608;2023-10-13T17:50:19;23.50;75.80
22416;DHT22;12204;50.600;4.608;2023-10-13T17:55:23;23.50;76.20
22416;DHT22;12204;50.600;4.608;2023-10-13T18:00:29;23.50;76.30
22416;DHT22;12204;50.600;4.608;2023-10-13T18:05:34;23.40;76.10
22416;DHT22;12204;50.600;4.608;2023-10-13T18:10:39;23.50;76.00
22416;DHT22;12204;50.600;4.608;2023-10-13T18:15:45;23.50;75.90
22416;DHT22;12204;50.600;4.608;2023-10-13T18:21:00;23.40;75.80
22416;DHT22;12204;50.600;4.608;2023-10-13T18:26:05;23.40;76.00
22416;DHT22;12204;50.600;4.608;2023-10-13T18:31:08;23.40;75.80
22416;DHT22;12204;50.600;4.608;2023-10-13T18:36:16;23.40;75.80
22416;DHT22;12204;50.600;4.608;2023-10-13T18:41:21;23.40;75.80
22416;DHT22;12204;50.600;4.608;2023-10-13T18:46:24;23.40;75.80
22416;DHT22;12204;50.600;4.608;2023-10-13T18:51:29;23.40;76.00
22416;DHT22;12204;50.600;4.608;2023-10-13T18:56:34;23.40;76.20
22416;DHT22;12204;50.600;4.608;2023-10-13T19:01:38;23.40;76.50
22416;DHT22;12204;50.600;4.608;2023-10-13T19:06:43;23.40;76.50
22416;DHT22;12204;50.600;4.608;2023-10-13T19:11:49;23.50;76.60
22416;DHT22;12204;50.600;4.608;2023-10-13T19:16:57;23.50;76.80
22416;DHT22;12204;50.600;4.608;2023-10-13T19:22:03;23.50;76.80
22416;DHT22;12204;50.600;4.608;2023-10-13T19:27:08;23.50;77.20
22416;DHT22;12204;50.600;4.608;2023-10-13T19:32:11;23.50;77.20
22416;DHT22;12204;50.600;4.608;2023-10-13T19:37:16;23.50;77.50
22416;DHT22;12204;50.600;4.608;2023-10-13T19:42:19;23.50;77.90
22416;DHT22;12204;50.600;4.608;2023-10-13T19:47:23;23.50;78.20
22416;DHT22;12204;50.600;4.608;2023-10-13T19:52:28;23.50;78.50
22416;DHT22;12204;50.600;4.608;2023-10-13T19:57:32;23.50;78.70
22416;DHT22;12204;50.600;4.608;2023-10-13T20:02:37;23.50;79.00
22416;DHT22;12204;50.600;4.608;2023-10-13T20:07:46;23.50;78.90
22416;DHT22;12204;50.600;4.608;2023-10-13T20:12:50;23.50;79.00
22416;DHT22;12204;50.600;4.608;2023-10-13T20:17:53;23.50;79.10
22416;DHT22;12204;50.600;4.608;2023-10-13T20:22:58;23.50;79.30
22416;DHT22;12204;50.600;4.608;2023-10-13T20:28:02;23.50;79.30
22416;DHT22;12204;50.600;4.608;2023-10-13T20:33:06;23.50;79.40
22416;DHT22;12204;50.600;4.608;2023-10-13T20:38:13;23.50;79.50
22416;DHT22;12204;50.600;4.608;2023-10-13T20:43:19;23.50;79.60
22416;DHT22;12204;50.600;4.608;2023-10-13T20:48:28;23.50;79.50
22416;DHT22;12204;50.600;4.608;2023-10-13T20:53:36;23.50;79.50
22416;DHT22;12204;50.600;4.608;2023-10-13T20:58:40;23.50;79.60
22416;DHT22;12204;50.600;4.608;2023-10-13T21:03:48;23.50;79.60
22416;DHT22;12204;50.600;4.608;2023-10-13T21:08:53;23.60;79.70
22416;DHT22;12204;50.600;4.608;2023-10-13T21:14:01;23.50;79.90
22416;DHT22;12204;50.600;4.608;2023-10-13T21:19:04;23.50;79.80
22416;DHT22;12204;50.600;4.608;2023-10-13T21:24:09;23.50;79.80
22416;DHT22;12204;50.600;4.608;2023-10-13T21:29:13;23.50;80.40
22416;DHT22;12204;50.600;4.608;2023-10-13T21:34:19;23.60;79.70
22416;DHT22;12204;50.600;4.608;2023-10-13T21:39:26;23.60;79.40
22416;DHT22;12204;50.600;4.608;2023-10-13T21:44:48;23.60;79.30
22416;DHT22;12204;50.600;4.608;2023-10-13T21:49:57;23.60;79.10
22416;DHT22;12204;50.600;4.608;2023-10-13T21:55:02;23.60;79.10
22416;DHT22;12204;50.600;4.608;2023-10-13T22:00:07;23.60;79.00
22416;DHT22;12204;50.600;4.608;2023-10-13T22:05:22;23.60;79.20
22416;DHT22;12204;50.600;4.608;2023-10-13T22:10:27;23.60;79.20
22416;DHT22;12204;50.600;4.608;2023-10-13T22:15:34;23.60;79.40
22416;DHT22;12204;50.600;4.608;2023-10-13T22:20:41;23.60;80.40
22416;DHT22;12204;50.600;4.608;2023-10-13T22:25:47;23.60;79.40
22416;DHT22;12204;50.600;4.608;2023-10-13T22:30:51;23.60;80.20
22416;DHT22;12204;50.600;4.608;2023-10-13T22:35:56;23.60;79.30
22416;DHT22;12204;50.600;4.608;2023-10-13T22:41:02;23.60;79.30
22416;DHT22;12204;50.600;4.608;2023-10-13T22:46:07;23.60;79.30
22416;DHT22;12204;50.600;4.608;2023-10-13T22:51:11;23.60;79.10
22416;DHT22;12204;50.600;4.608;2023-10-13T22:56:18;23.60;79.40
22416;DHT22;12204;50.600;4.608;2023-10-13T23:01:23;23.70;79.40
22416;DHT22;12204;50.600;4.608;2023-10-13T23:06:26;23.70;79.30
22416;DHT22;12204;50.600;4.608;2023-10-13T23:11:34;23.70;79.20
22416;DHT22;12204;50.600;4.608;2023-10-13T23:16:40;23.70;79.40
22416;DHT22;12204;50.600;4.608;2023-10-13T23:21:48;23.70;79.50
22416;DHT22;12204;50.600;4.608;2023-10-13T23:26:53;23.70;79.70
22416;DHT22;12204;50.600;4.608;2023-10-13T23:31:56;23.70;79.30
22416;DHT22;12204;50.600;4.608;2023-10-13T23:37:00;23.70;79.40
22416;DHT22;12204;50.600;4.608;2023-10-13T23:42:12;23.70;78.90
22416;DHT22;12204;50.600;4.608;2023-10-13T23:47:25;23.70;78.70
22416;DHT22;12204;50.600;4.608;2023-10-13T23:52:30;23.70;78.90
22416;DHT22;12204;50.600;4.608;2023-10-13T23:57:35;23.70;78.80
